createdAt,value
2018-12-31T00:00:08.845Z,1024.14
2018-12-31T00:01:08.089Z,1024.13
2018-12-31T00:02:08.068Z,1024.16
2018-12-31T00:03:08.041Z,1024.11
2018-12-31T00:04:08.022Z,1024.11
2018-12-31T00:05:08.002Z,1024.04
2018-12-31T00:06:07.981Z,1024.06
2018-12-31T00:07:07.954Z,1024.05
2018-12-31T00:08:07.934Z,1024.06
2018-12-31T00:09:07.912Z,1024.01
2018-12-31T00:10:07.887Z,1024.05
2018-12-31T00:11:07.862Z,1023.92
2018-12-31T00:12:07.841Z,1023.95
2018-12-31T00:13:07.819Z,1024.03
2018-12-31T00:14:07.796Z,1024.07
2018-12-31T00:15:07.773Z,1024.07
2018-12-31T00:16:07.752Z,1024.06
2018-12-31T00:17:07.730Z,1024.07
2018-12-31T00:18:07.705Z,1024.12
2018-12-31T00:19:07.680Z,1024.08
2018-12-31T00:20:07.663Z,1024.09
2018-12-31T00:21:07.646Z,1024.11
2018-12-31T00:22:07.634Z,1024.14
2018-12-31T00:23:07.592Z,1024.14
2018-12-31T00:24:07.567Z,1024.22
2018-12-31T00:25:07.548Z,1024.18
2018-12-31T00:26:07.524Z,1024.22
2018-12-31T00:27:07.502Z,1024.19
2018-12-31T00:28:07.490Z,1024.19
2018-12-31T00:29:07.456Z,1024.20
2018-12-31T00:30:07.440Z,1024.21
2018-12-31T00:31:07.412Z,1024.27
2018-12-31T00:32:07.385Z,1024.27
2018-12-31T00:33:07.370Z,1024.32
2018-12-31T00:34:07.342Z,1024.27
2018-12-31T00:35:07.318Z,1024.20
2018-12-31T00:36:07.307Z,1024.14
2018-12-31T00:37:07.279Z,1024.22
2018-12-31T00:38:07.254Z,1024.21
2018-12-31T00:39:07.228Z,1024.21
2018-12-31T00:40:07.206Z,1024.25
2018-12-31T00:41:07.184Z,1024.27
2018-12-31T00:42:07.164Z,1024.31
2018-12-31T00:43:07.139Z,1024.31
2018-12-31T00:44:07.119Z,1024.31
2018-12-31T00:45:07.094Z,1024.31
2018-12-31T00:46:07.083Z,1024.29
2018-12-31T00:47:07.048Z,1024.29
2018-12-31T00:48:07.028Z,1024.26
2018-12-31T00:49:07.004Z,1024.25
2018-12-31T00:50:06.978Z,1024.25
2018-12-31T00:51:06.960Z,1024.24
2018-12-31T00:52:06.935Z,1024.28
2018-12-31T00:53:06.911Z,1024.25
2018-12-31T00:54:06.890Z,1024.32
2018-12-31T00:55:06.870Z,1024.33
2018-12-31T00:56:06.848Z,1024.28
2018-12-31T00:57:06.822Z,1024.30
2018-12-31T00:58:06.807Z,1024.29
2018-12-31T00:59:06.783Z,1024.29
2018-12-31T01:00:06.751Z,1024.26
2018-12-31T01:01:06.733Z,1024.29
2018-12-31T01:02:06.709Z,1024.33
2018-12-31T01:03:06.683Z,1024.31
2018-12-31T01:04:06.666Z,1024.35
2018-12-31T01:05:06.693Z,1024.36
2018-12-31T01:06:06.620Z,1024.37
2018-12-31T01:07:06.600Z,1024.40
2018-12-31T01:08:06.575Z,1024.36
2018-12-31T01:09:06.557Z,1024.41
2018-12-31T01:10:06.532Z,1024.44
2018-12-31T01:11:06.508Z,1024.43
2018-12-31T01:12:06.487Z,1024.44
2018-12-31T01:13:06.463Z,1024.42
2018-12-31T01:14:06.437Z,1024.47
2018-12-31T01:15:06.416Z,1024.43
2018-12-31T01:16:06.389Z,1024.43
2018-12-31T01:17:06.370Z,1024.44
2018-12-31T01:18:06.350Z,1024.45
2018-12-31T01:19:06.323Z,1024.45
2018-12-31T01:20:06.310Z,1024.41
2018-12-31T01:21:06.281Z,1024.40
2018-12-31T01:22:06.258Z,1024.42
2018-12-31T01:23:06.236Z,1024.45
2018-12-31T01:24:06.216Z,1024.41
2018-12-31T01:25:06.197Z,1024.50
2018-12-31T01:26:06.169Z,1024.47
2018-12-31T01:27:06.143Z,1024.49
2018-12-31T01:28:06.126Z,1024.48
2018-12-31T01:29:06.106Z,1024.50
2018-12-31T01:30:06.082Z,1024.54
2018-12-31T01:31:06.055Z,1024.55
2018-12-31T01:32:06.033Z,1024.56
2018-12-31T01:33:06.009Z,1024.59
2018-12-31T01:34:05.986Z,1024.58
2018-12-31T01:35:05.964Z,1024.55
2018-12-31T01:36:05.942Z,1024.59
2018-12-31T01:37:05.921Z,1024.62
2018-12-31T01:38:05.902Z,1024.63
2018-12-31T01:39:05.878Z,1024.60
2018-12-31T01:40:05.850Z,1024.63
2018-12-31T01:41:05.831Z,1024.64
2018-12-31T01:42:05.809Z,1024.65
2018-12-31T01:43:05.782Z,1024.70
2018-12-31T01:44:05.760Z,1024.66
2018-12-31T01:45:05.749Z,1024.68
2018-12-31T01:46:05.719Z,1024.71
2018-12-31T01:47:05.694Z,1024.74
2018-12-31T01:48:05.683Z,1024.70
2018-12-31T01:49:05.648Z,1024.79
2018-12-31T01:50:05.627Z,1024.77
2018-12-31T01:51:11.262Z,1024.80
2018-12-31T01:52:05.580Z,1024.78
2018-12-31T01:53:05.559Z,1024.80
2018-12-31T01:54:05.535Z,1024.87
2018-12-31T01:55:05.513Z,1024.87
2018-12-31T01:56:05.488Z,1024.87
2018-12-31T01:57:05.469Z,1024.88
2018-12-31T01:58:05.445Z,1024.90
2018-12-31T01:59:05.431Z,1024.89
2018-12-31T02:00:05.417Z,1024.87
2018-12-31T02:01:05.384Z,1024.87
2018-12-31T02:02:05.357Z,1024.85
2018-12-31T02:03:05.333Z,1024.86
2018-12-31T02:04:05.309Z,1024.88
2018-12-31T02:05:05.288Z,1024.85
2018-12-31T02:06:05.267Z,1024.83
2018-12-31T02:07:05.246Z,1024.81
2018-12-31T02:08:05.229Z,1024.81
2018-12-31T02:09:05.195Z,1024.85
2018-12-31T02:10:05.175Z,1024.86
2018-12-31T02:11:05.165Z,1024.79
2018-12-31T02:12:05.129Z,1024.86
2018-12-31T02:13:05.111Z,1024.83
2018-12-31T02:14:05.089Z,1024.87
2018-12-31T02:15:05.064Z,1024.90
2018-12-31T02:16:05.037Z,1024.85
2018-12-31T02:17:05.019Z,1024.92
2018-12-31T02:18:04.993Z,1024.90
2018-12-31T02:19:04.971Z,1024.96
2018-12-31T02:20:04.951Z,1024.90
2018-12-31T02:21:04.925Z,1024.90
2018-12-31T02:22:04.907Z,1024.96
2018-12-31T02:23:04.883Z,1024.98
2018-12-31T02:24:04.862Z,1025.01
2018-12-31T02:25:04.841Z,1024.97
2018-12-31T02:26:04.817Z,1024.96
2018-12-31T02:27:04.793Z,1025.00
2018-12-31T02:28:04.771Z,1024.97
2018-12-31T02:29:04.749Z,1024.99
2018-12-31T02:30:04.726Z,1025.03
2018-12-31T02:31:04.703Z,1025.01
2018-12-31T02:32:04.685Z,1024.95
2018-12-31T02:33:04.660Z,1024.94
2018-12-31T02:34:04.643Z,1024.96
2018-12-31T02:35:04.611Z,1024.96
2018-12-31T02:36:04.590Z,1024.99
2018-12-31T02:37:04.570Z,1024.99
2018-12-31T02:38:04.547Z,1024.99
2018-12-31T02:39:04.524Z,1024.96
2018-12-31T02:40:04.502Z,1024.98
2018-12-31T02:41:04.482Z,1024.95
2018-12-31T02:42:04.466Z,1024.93
2018-12-31T02:43:04.439Z,1024.95
2018-12-31T02:44:04.409Z,1024.85
2018-12-31T02:45:04.388Z,1024.89
2018-12-31T02:46:04.373Z,1024.88
2018-12-31T02:47:04.343Z,1024.84
2018-12-31T02:48:04.320Z,1024.85
2018-12-31T02:49:04.300Z,1024.82
2018-12-31T02:50:04.280Z,1024.81
2018-12-31T02:51:04.252Z,1024.88
2018-12-31T02:52:04.237Z,1024.87
2018-12-31T02:53:04.211Z,1024.93
2018-12-31T02:54:04.188Z,1024.93
2018-12-31T02:55:04.162Z,1024.89
2018-12-31T02:56:04.138Z,1024.85
2018-12-31T02:57:04.118Z,1024.81
2018-12-31T02:58:04.154Z,1024.81
2018-12-31T02:59:04.076Z,1024.75
2018-12-31T03:00:04.064Z,1024.74
2018-12-31T03:01:04.033Z,1024.71
2018-12-31T03:02:04.008Z,1024.70
2018-12-31T03:03:03.983Z,1024.69
2018-12-31T03:04:03.964Z,1024.75
2018-12-31T03:05:03.941Z,1024.74
2018-12-31T03:06:03.924Z,1024.73
2018-12-31T03:07:03.897Z,1024.81
2018-12-31T03:08:03.873Z,1024.82
2018-12-31T03:09:03.848Z,1024.85
2018-12-31T03:10:03.829Z,1024.88
2018-12-31T03:11:03.805Z,1024.86
2018-12-31T03:12:03.782Z,1024.86
2018-12-31T03:13:03.764Z,1024.79
2018-12-31T03:14:03.737Z,1024.87
2018-12-31T03:15:03.718Z,1024.83
2018-12-31T03:16:03.697Z,1024.79
2018-12-31T03:17:03.670Z,1024.75
2018-12-31T03:18:03.649Z,1024.75
2018-12-31T03:19:03.627Z,1024.74
2018-12-31T03:20:03.613Z,1024.79
2018-12-31T03:21:03.584Z,1024.82
2018-12-31T03:22:03.561Z,1024.89
2018-12-31T03:23:03.537Z,1024.90
2018-12-31T03:24:03.520Z,1024.88
2018-12-31T03:25:03.501Z,1024.88
2018-12-31T03:26:03.468Z,1024.85
2018-12-31T03:27:03.449Z,1024.84
2018-12-31T03:28:03.427Z,1024.83
2018-12-31T03:29:03.416Z,1024.86
2018-12-31T03:30:03.388Z,1024.82
2018-12-31T03:31:03.374Z,1024.84
2018-12-31T03:32:03.344Z,1024.88
2018-12-31T03:33:03.487Z,1024.89
2018-12-31T03:34:03.295Z,1024.86
2018-12-31T03:35:03.268Z,1024.84
2018-12-31T03:36:03.251Z,1024.85
2018-12-31T03:37:03.226Z,1024.88
2018-12-31T03:38:03.206Z,1024.92
2018-12-31T03:39:03.181Z,1024.94
2018-12-31T03:40:03.168Z,1024.95
2018-12-31T03:41:03.137Z,1024.91
2018-12-31T03:42:03.115Z,1024.90
2018-12-31T03:43:03.093Z,1024.90
2018-12-31T03:44:03.072Z,1024.90
2018-12-31T03:45:03.044Z,1024.91
2018-12-31T03:46:03.025Z,1024.88
2018-12-31T03:47:03.003Z,1024.89
2018-12-31T03:48:02.983Z,1024.90
2018-12-31T03:49:02.963Z,1024.81
2018-12-31T03:50:02.946Z,1024.79
2018-12-31T03:51:02.914Z,1024.81
2018-12-31T03:52:02.899Z,1024.87
2018-12-31T03:53:02.872Z,1024.92
2018-12-31T03:54:02.844Z,1024.90
2018-12-31T03:55:02.828Z,1024.89
2018-12-31T03:56:02.802Z,1024.86
2018-12-31T03:57:02.780Z,1024.83
2018-12-31T03:58:02.761Z,1024.80
2018-12-31T03:59:02.733Z,1024.81
2018-12-31T04:00:02.709Z,1024.85
2018-12-31T04:01:02.703Z,1024.84
2018-12-31T04:02:02.668Z,1024.82
2018-12-31T04:03:02.664Z,1024.79
2018-12-31T04:04:02.626Z,1024.74
2018-12-31T04:05:02.599Z,1024.80
2018-12-31T04:06:02.583Z,1024.80
2018-12-31T04:07:02.558Z,1024.78
2018-12-31T04:08:02.535Z,1024.76
2018-12-31T04:09:02.518Z,1024.80
2018-12-31T04:10:02.491Z,1024.82
2018-12-31T04:11:02.468Z,1024.86
2018-12-31T04:12:02.445Z,1024.85
2018-12-31T04:13:02.422Z,1024.91
2018-12-31T04:14:02.402Z,1024.92
2018-12-31T04:15:02.383Z,1024.96
2018-12-31T04:16:02.362Z,1024.92
2018-12-31T04:17:02.338Z,1024.96
2018-12-31T04:18:02.316Z,1024.93
2018-12-31T04:19:02.292Z,1024.96
2018-12-31T04:20:02.265Z,1024.89
2018-12-31T04:21:02.243Z,1024.87
2018-12-31T04:22:02.218Z,1024.89
2018-12-31T04:23:02.209Z,1024.89
2018-12-31T04:24:02.178Z,1024.95
2018-12-31T04:25:02.172Z,1024.94
2018-12-31T04:26:02.135Z,1024.92
2018-12-31T04:27:02.117Z,1024.93
2018-12-31T04:28:02.090Z,1024.91
2018-12-31T04:29:02.064Z,1024.94
2018-12-31T04:30:02.045Z,1024.96
2018-12-31T04:31:02.025Z,1025.01
2018-12-31T04:32:02.000Z,1025.00
2018-12-31T04:33:01.978Z,1025.04
2018-12-31T04:34:01.960Z,1025.03
2018-12-31T04:35:01.929Z,1025.07
2018-12-31T04:36:01.908Z,1025.06
2018-12-31T04:37:01.889Z,1025.10
2018-12-31T04:38:01.868Z,1025.09
2018-12-31T04:39:01.840Z,1025.09
2018-12-31T04:40:01.824Z,1025.05
2018-12-31T04:41:01.802Z,1025.06
2018-12-31T04:42:01.797Z,1025.01
2018-12-31T04:43:01.755Z,1024.97
2018-12-31T04:44:01.734Z,1025.00
2018-12-31T04:45:01.710Z,1024.97
2018-12-31T04:46:01.693Z,1024.90
2018-12-31T04:47:01.662Z,1024.94
2018-12-31T04:48:01.647Z,1024.94
2018-12-31T04:49:01.622Z,1024.92
2018-12-31T04:50:01.605Z,1024.85
2018-12-31T04:51:01.578Z,1024.94
2018-12-31T04:52:01.555Z,1024.90
2018-12-31T04:53:01.540Z,1024.84
2018-12-31T04:54:01.518Z,1024.86
2018-12-31T04:55:01.513Z,1024.88
2018-12-31T04:56:01.466Z,1024.83
2018-12-31T04:57:01.450Z,1024.84
2018-12-31T04:58:01.421Z,1024.86
2018-12-31T04:59:01.403Z,1024.86
2018-12-31T05:00:01.374Z,1024.86
2018-12-31T05:01:01.350Z,1024.89
2018-12-31T05:02:01.332Z,1024.90
2018-12-31T05:03:01.317Z,1024.94
2018-12-31T05:04:01.292Z,1024.98
2018-12-31T05:05:01.264Z,1024.98
2018-12-31T05:06:01.247Z,1024.97
2018-12-31T05:07:01.220Z,1025.02
2018-12-31T05:08:01.198Z,1025.05
2018-12-31T05:09:01.178Z,1025.08
2018-12-31T05:10:01.160Z,1025.13
2018-12-31T05:11:01.142Z,1025.08
2018-12-31T05:12:01.112Z,1025.13
2018-12-31T05:13:01.086Z,1025.11
2018-12-31T05:14:01.064Z,1025.19
2018-12-31T05:15:01.045Z,1025.25
2018-12-31T05:16:01.022Z,1025.22
2018-12-31T05:17:00.999Z,1025.26
2018-12-31T05:18:00.981Z,1025.26
2018-12-31T05:19:00.962Z,1025.26
2018-12-31T05:20:00.937Z,1025.28
2018-12-31T05:21:00.910Z,1025.30
2018-12-31T05:22:00.890Z,1025.26
2018-12-31T05:23:00.869Z,1025.23
2018-12-31T05:24:00.842Z,1025.27
2018-12-31T05:25:00.829Z,1025.26
2018-12-31T05:26:00.801Z,1025.23
2018-12-31T05:27:00.778Z,1025.27
2018-12-31T05:28:00.758Z,1025.28
2018-12-31T05:29:00.730Z,1025.32
2018-12-31T05:30:00.711Z,1025.29
2018-12-31T05:31:00.697Z,1025.36
2018-12-31T05:32:00.665Z,1025.29
2018-12-31T05:33:00.645Z,1025.32
2018-12-31T05:34:00.625Z,1025.31
2018-12-31T05:35:00.600Z,1025.31
2018-12-31T05:36:00.579Z,1025.38
2018-12-31T05:37:00.556Z,1025.31
2018-12-31T05:38:00.532Z,1025.39
2018-12-31T05:39:00.516Z,1025.35
2018-12-31T05:40:00.486Z,1025.32
2018-12-31T05:41:00.468Z,1025.37
2018-12-31T05:42:00.443Z,1025.38
2018-12-31T05:43:00.427Z,1025.37
2018-12-31T05:44:00.395Z,1025.36
2018-12-31T05:45:00.374Z,1025.39
2018-12-31T05:46:00.359Z,1025.40
2018-12-31T05:47:00.334Z,1025.45
2018-12-31T05:48:00.314Z,1025.45
2018-12-31T05:49:00.294Z,1025.48
2018-12-31T05:50:00.268Z,1025.48
2018-12-31T05:51:00.244Z,1025.50
2018-12-31T05:52:00.221Z,1025.49
2018-12-31T05:53:00.203Z,1025.51
2018-12-31T05:54:00.185Z,1025.52
2018-12-31T05:55:00.169Z,1025.51
2018-12-31T05:56:00.131Z,1025.48
2018-12-31T05:57:00.111Z,1025.51
2018-12-31T05:58:00.087Z,1025.50
2018-12-31T05:59:00.069Z,1025.49
2018-12-31T06:00:00.046Z,1025.52
2018-12-31T06:01:00.022Z,1025.50
2018-12-31T06:02:00.027Z,1025.47
2018-12-31T06:02:59.977Z,1025.49
2018-12-31T06:03:59.955Z,1025.51
2018-12-31T06:04:59.934Z,1025.51
2018-12-31T06:05:59.917Z,1025.48
2018-12-31T06:06:59.890Z,1025.52
2018-12-31T06:07:59.867Z,1025.55
2018-12-31T06:08:59.843Z,1025.61
2018-12-31T06:09:59.826Z,1025.54
2018-12-31T06:10:59.797Z,1025.57
2018-12-31T06:11:59.779Z,1025.58
2018-12-31T06:12:59.755Z,1025.57
2018-12-31T06:13:59.735Z,1025.59
2018-12-31T06:14:59.711Z,1025.60
2018-12-31T06:15:59.689Z,1025.59
2018-12-31T06:16:59.669Z,1025.58
2018-12-31T06:17:59.646Z,1025.58
2018-12-31T06:18:59.623Z,1025.59
2018-12-31T06:19:59.599Z,1025.54
2018-12-31T06:20:59.582Z,1025.59
2018-12-31T06:21:59.559Z,1025.67
2018-12-31T06:22:59.539Z,1025.65
2018-12-31T06:23:59.513Z,1025.67
2018-12-31T06:24:59.492Z,1025.68
2018-12-31T06:25:59.468Z,1025.71
2018-12-31T06:26:59.444Z,1025.69
2018-12-31T06:27:59.421Z,1025.67
2018-12-31T06:28:59.404Z,1025.69
2018-12-31T06:29:59.382Z,1025.70
2018-12-31T06:30:59.359Z,1025.73
2018-12-31T06:31:59.337Z,1025.74
2018-12-31T06:32:59.322Z,1025.72
2018-12-31T06:33:59.292Z,1025.78
2018-12-31T06:34:59.267Z,1025.76
2018-12-31T06:35:59.245Z,1025.77
2018-12-31T06:36:59.224Z,1025.71
2018-12-31T06:37:59.203Z,1025.75
2018-12-31T06:38:59.181Z,1025.74
2018-12-31T06:39:59.155Z,1025.71
2018-12-31T06:40:59.135Z,1025.76
2018-12-31T06:41:59.111Z,1025.72
2018-12-31T06:42:59.091Z,1025.73
2018-12-31T06:43:59.067Z,1025.72
2018-12-31T06:44:59.045Z,1025.72
2018-12-31T06:45:59.023Z,1025.72
2018-12-31T06:46:59.001Z,1025.70
2018-12-31T06:47:58.983Z,1025.67
2018-12-31T06:48:58.958Z,1025.67
2018-12-31T06:49:58.940Z,1025.68
2018-12-31T06:50:58.912Z,1025.62
2018-12-31T06:51:58.896Z,1025.59
2018-12-31T06:52:58.867Z,1025.59
2018-12-31T06:53:58.852Z,1025.58
2018-12-31T06:54:58.825Z,1025.58
2018-12-31T06:55:58.801Z,1025.59
2018-12-31T06:56:58.779Z,1025.56
2018-12-31T06:57:58.761Z,1025.61
2018-12-31T06:58:58.737Z,1025.57
2018-12-31T06:59:58.714Z,1025.64
2018-12-31T07:00:58.694Z,1025.62
2018-12-31T07:01:58.667Z,1025.60
2018-12-31T07:02:58.650Z,1025.69
2018-12-31T07:03:58.626Z,1025.73
2018-12-31T07:04:58.603Z,1025.69
2018-12-31T07:05:58.582Z,1025.67
2018-12-31T07:06:58.562Z,1025.68
2018-12-31T07:07:58.534Z,1025.65
2018-12-31T07:08:58.516Z,1025.65
2018-12-31T07:09:58.497Z,1025.69
2018-12-31T07:10:58.467Z,1025.69
2018-12-31T07:11:58.445Z,1025.68
2018-12-31T07:12:58.427Z,1025.66
2018-12-31T07:13:58.405Z,1025.68
2018-12-31T07:14:58.389Z,1025.67
2018-12-31T07:15:58.362Z,1025.67
2018-12-31T07:16:58.337Z,1025.65
2018-12-31T07:17:58.324Z,1025.70
2018-12-31T07:18:58.293Z,1025.71
2018-12-31T07:19:58.268Z,1025.82
2018-12-31T07:20:58.248Z,1025.79
2018-12-31T07:21:58.226Z,1025.82
2018-12-31T07:22:58.205Z,1025.82
2018-12-31T07:23:58.183Z,1025.86
2018-12-31T07:24:58.159Z,1025.88
2018-12-31T07:25:58.145Z,1025.86
2018-12-31T07:26:58.120Z,1025.85
2018-12-31T07:27:58.094Z,1025.83
2018-12-31T07:28:58.076Z,1025.88
2018-12-31T07:29:58.052Z,1025.84
2018-12-31T07:30:58.026Z,1025.91
2018-12-31T07:31:58.007Z,1025.92
2018-12-31T07:32:57.983Z,1025.93
2018-12-31T07:33:57.958Z,1025.94
2018-12-31T07:34:57.940Z,1025.98
2018-12-31T07:35:57.921Z,1026.03
2018-12-31T07:36:57.896Z,1026.03
2018-12-31T07:37:57.874Z,1026.07
2018-12-31T07:38:57.850Z,1026.09
2018-12-31T07:39:57.828Z,1026.12
2018-12-31T07:40:57.806Z,1026.11
2018-12-31T07:41:57.787Z,1026.10
2018-12-31T07:42:57.761Z,1026.10
2018-12-31T07:43:57.741Z,1026.13
2018-12-31T07:44:57.716Z,1026.17
2018-12-31T07:45:57.696Z,1026.18
2018-12-31T07:46:57.679Z,1026.14
2018-12-31T07:47:57.652Z,1026.17
2018-12-31T07:48:57.632Z,1026.17
2018-12-31T07:49:57.604Z,1026.17
2018-12-31T07:50:57.584Z,1026.17
2018-12-31T07:51:57.563Z,1026.20
2018-12-31T07:52:57.543Z,1026.17
2018-12-31T07:53:57.522Z,1026.18
2018-12-31T07:54:57.499Z,1026.17
2018-12-31T07:55:57.475Z,1026.14
2018-12-31T07:56:57.451Z,1026.15
2018-12-31T07:57:57.432Z,1026.17
2018-12-31T07:58:57.409Z,1026.20
2018-12-31T07:59:57.389Z,1026.12
2018-12-31T08:00:57.387Z,1026.15
2018-12-31T08:01:57.348Z,1026.18
2018-12-31T08:02:57.315Z,1026.16
2018-12-31T08:03:57.358Z,1026.18
2018-12-31T08:04:57.291Z,1026.19
2018-12-31T08:05:57.255Z,1026.23
2018-12-31T08:06:57.235Z,1026.26
2018-12-31T08:07:57.249Z,1026.23
2018-12-31T08:08:57.192Z,1026.26
2018-12-31T08:09:57.165Z,1026.22
2018-12-31T08:10:57.148Z,1026.28
2018-12-31T08:11:57.129Z,1026.26
2018-12-31T08:12:57.101Z,1026.24
2018-12-31T08:13:57.080Z,1026.29
2018-12-31T08:14:57.060Z,1026.25
2018-12-31T08:15:57.035Z,1026.31
2018-12-31T08:16:57.018Z,1026.29
2018-12-31T08:17:56.993Z,1026.31
2018-12-31T08:18:57.047Z,1026.31
2018-12-31T08:19:56.949Z,1026.31
2018-12-31T08:20:56.931Z,1026.29
2018-12-31T08:21:56.907Z,1026.28
2018-12-31T08:22:56.896Z,1026.27
2018-12-31T08:23:56.861Z,1026.24
2018-12-31T08:24:56.869Z,1026.30
2018-12-31T08:25:56.817Z,1026.27
2018-12-31T08:26:56.795Z,1026.30
2018-12-31T08:27:56.775Z,1026.25
2018-12-31T08:28:56.753Z,1026.29
2018-12-31T08:29:56.730Z,1026.29
2018-12-31T08:30:56.707Z,1026.28
2018-12-31T08:31:56.692Z,1026.25
2018-12-31T08:32:56.669Z,1026.26
2018-12-31T08:33:56.646Z,1026.28
2018-12-31T08:34:56.619Z,1026.25
2018-12-31T08:35:56.598Z,1026.23
2018-12-31T08:36:56.575Z,1026.22
2018-12-31T08:37:56.556Z,1026.28
2018-12-31T08:38:56.540Z,1026.24
2018-12-31T08:39:56.514Z,1026.20
2018-12-31T08:40:56.491Z,1026.21
2018-12-31T08:41:56.469Z,1026.26
2018-12-31T08:42:56.451Z,1026.21
2018-12-31T08:43:56.476Z,1026.20
2018-12-31T08:44:56.406Z,1026.20
2018-12-31T08:45:56.387Z,1026.20
2018-12-31T08:46:56.363Z,1026.19
2018-12-31T08:47:56.341Z,1026.22
2018-12-31T08:48:56.318Z,1026.25
2018-12-31T08:49:56.301Z,1026.23
2018-12-31T08:50:56.281Z,1026.21
2018-12-31T08:51:56.252Z,1026.19
2018-12-31T08:52:56.228Z,1026.23
2018-12-31T08:53:56.212Z,1026.22
2018-12-31T08:54:56.184Z,1026.19
2018-12-31T08:55:56.169Z,1026.14
2018-12-31T08:56:56.143Z,1026.16
2018-12-31T08:57:56.139Z,1026.11
2018-12-31T08:58:56.106Z,1026.16
2018-12-31T08:59:56.080Z,1026.17
2018-12-31T09:00:56.055Z,1026.16
2018-12-31T09:01:56.047Z,1026.17
2018-12-31T09:02:56.014Z,1026.18
2018-12-31T11:29:18.033Z,1025.74
2018-12-31T11:30:18.016Z,1025.73
2018-12-31T11:31:17.996Z,1025.72
2018-12-31T11:32:17.973Z,1025.72
2018-12-31T11:33:17.953Z,1025.64
2018-12-31T11:34:17.940Z,1025.67
2018-12-31T11:35:17.920Z,1025.67
2018-12-31T11:36:17.899Z,1025.69
2018-12-31T11:37:17.881Z,1025.68
2018-12-31T11:38:17.867Z,1025.69
2018-12-31T11:39:17.845Z,1025.70
2018-12-31T11:40:17.825Z,1025.69
2018-12-31T11:41:17.809Z,1025.66
2018-12-31T11:42:17.787Z,1025.67
2018-12-31T11:43:17.768Z,1025.69
2018-12-31T11:44:17.764Z,1025.73
2018-12-31T11:45:17.740Z,1025.76
2018-12-31T11:46:17.715Z,1025.76
2018-12-31T11:47:17.700Z,1025.80
2018-12-31T11:48:17.675Z,1025.80
2018-12-31T11:49:17.653Z,1025.80
2018-12-31T11:50:17.644Z,1025.76
2018-12-31T11:51:17.618Z,1025.73
2018-12-31T11:52:17.595Z,1025.72
2018-12-31T11:53:17.578Z,1025.67
2018-12-31T11:54:17.568Z,1025.69
2018-12-31T11:55:17.550Z,1025.67
2018-12-31T11:56:17.530Z,1025.69
2018-12-31T11:57:17.516Z,1025.73
2018-12-31T11:58:17.493Z,1025.69
2018-12-31T11:59:17.472Z,1025.64
2018-12-31T12:00:17.453Z,1025.67
2018-12-31T12:01:17.433Z,1025.60
2018-12-31T12:02:23.440Z,1025.58
2018-12-31T12:03:17.396Z,1025.58
2018-12-31T12:04:17.381Z,1025.51
2018-12-31T12:05:17.360Z,1025.52
2018-12-31T12:06:17.343Z,1025.49
2018-12-31T12:07:17.322Z,1025.50
2018-12-31T12:08:17.301Z,1025.47
2018-12-31T12:09:17.285Z,1025.50
2018-12-31T12:10:17.271Z,1025.55
2018-12-31T12:11:17.245Z,1025.57
2018-12-31T12:12:17.226Z,1025.57
2018-12-31T12:13:17.210Z,1025.56
2018-12-31T12:14:17.204Z,1025.50
2018-12-31T12:15:17.178Z,1025.54
2018-12-31T12:16:17.159Z,1025.55
2018-12-31T12:17:17.135Z,1025.53
2018-12-31T12:18:17.120Z,1025.45
2018-12-31T12:19:17.099Z,1025.45
2018-12-31T12:20:17.077Z,1025.47
2018-12-31T12:21:17.064Z,1025.50
2018-12-31T12:22:17.041Z,1025.51
2018-12-31T12:23:17.025Z,1025.48
2018-12-31T12:24:17.003Z,1025.52
2018-12-31T12:25:16.994Z,1025.45
2018-12-31T12:26:16.963Z,1025.49
2018-12-31T12:27:16.945Z,1025.49
2018-12-31T12:28:16.928Z,1025.43
2018-12-31T12:29:16.913Z,1025.47
2018-12-31T12:30:16.891Z,1025.44
2018-12-31T12:31:16.873Z,1025.39
2018-12-31T12:32:16.849Z,1025.36
2018-12-31T12:33:16.835Z,1025.41
2018-12-31T12:34:16.818Z,1025.39
2018-12-31T12:35:16.797Z,1025.41
2018-12-31T12:36:16.773Z,1025.43
2018-12-31T12:37:16.763Z,1025.42
2018-12-31T12:38:16.743Z,1025.39
2018-12-31T12:39:16.721Z,1025.43
2018-12-31T12:40:16.700Z,1025.42
2018-12-31T12:41:16.679Z,1025.39
2018-12-31T12:42:16.661Z,1025.37
2018-12-31T12:43:16.642Z,1025.35
2018-12-31T12:44:16.626Z,1025.33
2018-12-31T12:45:16.606Z,1025.32
2018-12-31T12:46:16.589Z,1025.35
2018-12-31T12:47:16.571Z,1025.38
2018-12-31T12:48:16.566Z,1025.33
2018-12-31T12:49:16.531Z,1025.33
2018-12-31T12:50:16.512Z,1025.32
2018-12-31T12:51:16.492Z,1025.26
2018-12-31T12:52:16.478Z,1025.28
2018-12-31T12:53:16.460Z,1025.28
2018-12-31T12:54:16.439Z,1025.25
2018-12-31T12:55:16.423Z,1025.25
2018-12-31T12:56:16.395Z,1025.25
2018-12-31T12:57:16.378Z,1025.28
2018-12-31T12:58:16.365Z,1025.33
2018-12-31T12:59:16.348Z,1025.31
2018-12-31T13:00:16.332Z,1025.30
2018-12-31T13:01:16.304Z,1025.30
2018-12-31T13:02:16.287Z,1025.32
2018-12-31T13:03:16.266Z,1025.30
2018-12-31T13:04:16.248Z,1025.30
2018-12-31T13:05:16.229Z,1025.32
2018-12-31T13:06:16.220Z,1025.28
2018-12-31T13:07:16.202Z,1025.30
2018-12-31T13:08:16.170Z,1025.28
2018-12-31T13:09:16.198Z,1025.33
2018-12-31T13:10:16.138Z,1025.32
2018-12-31T13:11:16.191Z,1025.34
2018-12-31T13:12:16.094Z,1025.34
2018-12-31T13:13:16.076Z,1025.30
2018-12-31T13:14:16.067Z,1025.30
2018-12-31T13:15:16.037Z,1025.32
2018-12-31T13:16:16.021Z,1025.24
2018-12-31T13:17:15.999Z,1025.26
2018-12-31T13:18:15.983Z,1025.22
2018-12-31T13:19:15.963Z,1025.20
2018-12-31T13:20:15.948Z,1025.22
2018-12-31T13:21:15.927Z,1025.24
2018-12-31T13:22:15.906Z,1025.25
2018-12-31T13:23:15.880Z,1025.22
2018-12-31T13:24:15.862Z,1025.26
2018-12-31T13:25:15.849Z,1025.27
2018-12-31T13:26:15.829Z,1025.25
2018-12-31T13:27:15.805Z,1025.25
2018-12-31T13:28:15.793Z,1025.25
2018-12-31T13:29:15.771Z,1025.26
2018-12-31T13:30:15.748Z,1025.30
2018-12-31T13:31:15.729Z,1025.35
2018-12-31T13:32:15.723Z,1025.37
2018-12-31T13:33:15.685Z,1025.41
2018-12-31T13:34:15.672Z,1025.42
2018-12-31T13:35:15.652Z,1025.45
2018-12-31T13:36:15.644Z,1025.46
2018-12-31T13:37:15.610Z,1025.49
2018-12-31T13:38:15.592Z,1025.52
2018-12-31T13:39:15.575Z,1025.50
2018-12-31T13:40:15.551Z,1025.49
2018-12-31T13:41:15.533Z,1025.41
2018-12-31T13:42:15.511Z,1025.30
2018-12-31T13:43:15.491Z,1025.29
2018-12-31T13:44:15.476Z,1025.21
2018-12-31T13:45:15.459Z,1025.27
2018-12-31T13:46:15.441Z,1025.21
2018-12-31T13:47:15.524Z,1025.24
2018-12-31T13:48:15.725Z,1025.28
2018-12-31T13:49:15.379Z,1025.34
2018-12-31T13:50:15.356Z,1025.33
2018-12-31T13:51:15.346Z,1025.31
2018-12-31T13:52:15.320Z,1025.37
2018-12-31T13:53:15.297Z,1025.39
2018-12-31T13:54:15.281Z,1025.36
2018-12-31T13:55:15.261Z,1025.39
2018-12-31T13:56:15.239Z,1025.42
2018-12-31T13:57:15.219Z,1025.44
2018-12-31T13:58:15.198Z,1025.43
2018-12-31T13:59:15.179Z,1025.42
2018-12-31T14:00:15.163Z,1025.41
2018-12-31T14:01:15.137Z,1025.38
2018-12-31T14:02:15.125Z,1025.37
2018-12-31T14:03:18.505Z,1025.34
2018-12-31T14:04:15.081Z,1025.29
2018-12-31T14:05:16.463Z,1025.26
2018-12-31T14:06:15.047Z,1025.19
2018-12-31T14:07:15.019Z,1025.23
2018-12-31T14:08:15.005Z,1025.22
2018-12-31T14:09:14.983Z,1025.21
2018-12-31T14:10:14.968Z,1025.25
2018-12-31T14:11:14.945Z,1025.20
2018-12-31T14:12:14.921Z,1025.23
2018-12-31T14:13:14.907Z,1025.27
2018-12-31T14:14:14.886Z,1025.23
2018-12-31T14:15:14.862Z,1025.22
2018-12-31T14:16:14.849Z,1025.26
2018-12-31T14:17:14.820Z,1025.22
2018-12-31T14:18:14.803Z,1025.26
2018-12-31T14:19:14.784Z,1025.31
2018-12-31T14:20:14.765Z,1025.33
2018-12-31T14:21:14.748Z,1025.34
2018-12-31T14:22:14.725Z,1025.31
2018-12-31T14:23:14.713Z,1025.30
2018-12-31T14:24:14.683Z,1025.33
2018-12-31T14:25:14.675Z,1025.27
2018-12-31T14:26:14.649Z,1025.29
2018-12-31T14:27:14.629Z,1025.28
2018-12-31T14:28:14.601Z,1025.28
2018-12-31T14:29:14.590Z,1025.28
2018-12-31T14:30:14.568Z,1025.29